createdAt,value
2019-05-22T00:00:34.705Z,12.40
2019-05-22T00:01:34.693Z,12.38
2019-05-22T00:02:34.679Z,12.38
2019-05-22T00:03:34.676Z,12.37
2019-05-22T00:04:34.660Z,12.33
2019-05-22T00:05:34.651Z,12.38
2019-05-22T00:06:34.651Z,12.46
2019-05-22T00:07:34.627Z,12.43
2019-05-22T00:08:34.617Z,12.38
2019-05-22T00:09:34.607Z,12.44
2019-05-22T00:10:34.628Z,12.37
2019-05-22T00:11:34.595Z,12.34
2019-05-22T00:12:46.289Z,12.44
2019-05-22T00:13:35.563Z,12.51
2019-05-22T00:14:34.551Z,12.41
2019-05-22T00:15:34.545Z,12.38
2019-05-22T00:16:34.542Z,12.40
2019-05-22T00:17:34.520Z,12.40
2019-05-22T00:18:34.514Z,12.44
2019-05-22T00:19:34.500Z,12.33
2019-05-22T00:20:34.486Z,12.43
2019-05-22T00:21:34.495Z,12.43
2019-05-22T00:22:34.464Z,12.38
2019-05-22T00:23:34.466Z,12.48
2019-05-22T00:24:34.447Z,12.44
2019-05-22T00:25:34.434Z,12.40
2019-05-22T00:26:34.438Z,12.44
2019-05-22T00:27:34.412Z,12.40
2019-05-22T00:28:34.408Z,12.44
2019-05-22T00:29:34.415Z,12.33
2019-05-22T00:30:34.380Z,12.44
2019-05-22T00:31:34.382Z,12.43
2019-05-22T00:32:34.363Z,12.43
2019-05-22T00:33:36.317Z,12.41
2019-05-22T00:34:34.338Z,12.46
2019-05-22T00:35:34.331Z,12.44
2019-05-22T00:36:34.327Z,12.33
2019-05-22T00:37:34.316Z,12.43
2019-05-22T00:38:34.296Z,12.48
2019-05-22T00:39:34.286Z,12.40
2019-05-22T00:40:34.276Z,12.37
2019-05-22T00:41:34.274Z,12.43
2019-05-22T00:42:34.252Z,12.49
2019-05-22T00:43:34.244Z,12.44
2019-05-22T00:44:34.229Z,12.33
2019-05-22T00:45:34.228Z,12.43
2019-05-22T00:46:34.220Z,12.43
2019-05-22T00:47:34.196Z,12.46
2019-05-22T00:48:34.185Z,12.46
2019-05-22T00:49:34.175Z,12.49
2019-05-22T00:50:34.165Z,12.44
2019-05-22T00:51:34.163Z,12.43
2019-05-22T00:52:34.142Z,12.46
2019-05-22T00:53:34.135Z,12.46
2019-05-22T00:54:34.122Z,12.44
2019-05-22T00:55:34.112Z,12.48
2019-05-22T00:56:34.120Z,12.33
2019-05-22T00:57:34.096Z,12.46
2019-05-22T00:58:34.081Z,12.46
2019-05-22T00:59:34.070Z,12.49
2019-05-22T01:00:34.963Z,12.33
2019-05-22T01:01:34.065Z,12.36
2019-05-22T01:02:34.050Z,12.36
2019-05-22T01:03:34.042Z,12.36
2019-05-22T02:29:35.921Z,12.34
2019-05-22T02:30:35.906Z,12.34
2019-05-22T02:31:35.896Z,12.33
2019-05-22T02:32:35.893Z,12.37
2019-05-22T02:33:35.874Z,12.34
2019-05-22T02:34:35.864Z,12.36
2019-05-22T02:35:35.854Z,12.34
2019-05-22T02:36:35.861Z,12.36
2019-05-22T02:37:35.830Z,12.34
2019-05-22T02:38:35.818Z,12.36
2019-05-22T02:39:35.823Z,12.36
2019-05-22T02:40:35.800Z,12.31
2019-05-22T02:41:35.787Z,12.34
2019-05-22T02:42:35.780Z,12.37
2019-05-22T02:43:35.769Z,12.36
2019-05-22T02:44:35.785Z,12.34
2019-05-22T02:45:35.760Z,12.34
2019-05-22T02:46:35.735Z,12.34
2019-05-22T02:47:35.723Z,12.34
2019-05-22T02:48:35.711Z,12.36
2019-05-22T02:49:35.726Z,12.38
2019-05-22T02:50:35.696Z,12.34
2019-05-22T02:51:35.683Z,12.29
2019-05-22T02:52:35.670Z,12.37
2019-05-22T02:53:35.661Z,12.37
2019-05-22T02:54:35.661Z,12.36
2019-05-22T02:55:35.642Z,12.31
2019-05-22T02:56:35.629Z,12.34
2019-05-22T02:57:35.616Z,12.31
2019-05-22T02:58:35.620Z,12.33
2019-05-22T02:59:35.607Z,12.33
2019-05-22T03:00:35.586Z,12.31
2019-05-22T03:01:35.582Z,12.34
2019-05-22T03:02:35.564Z,12.38
2019-05-22T03:03:35.560Z,12.34
2019-05-22T03:04:35.554Z,12.29
2019-05-22T03:05:35.533Z,12.33
2019-05-22T03:06:35.521Z,12.34
2019-05-22T03:07:35.520Z,12.30
2019-05-22T03:08:35.499Z,12.26
2019-05-22T03:09:35.512Z,12.29
2019-05-22T03:10:35.487Z,12.34
2019-05-22T03:11:35.468Z,12.30
2019-05-22T03:12:35.462Z,12.30
2019-05-22T03:13:35.446Z,12.31
2019-05-22T03:14:35.452Z,12.30
2019-05-22T03:15:35.428Z,12.29
2019-05-22T03:16:35.415Z,12.29
2019-05-22T03:17:35.422Z,12.31
2019-05-22T03:18:35.393Z,12.31
2019-05-22T03:19:35.406Z,12.22
2019-05-22T03:20:35.384Z,12.30
2019-05-22T03:21:35.361Z,12.33
2019-05-22T03:22:35.365Z,12.21
2019-05-22T03:23:35.347Z,12.26
2019-05-22T03:24:35.331Z,12.30
2019-05-22T03:25:35.339Z,12.30
2019-05-22T03:26:35.309Z,12.25
2019-05-22T03:27:35.298Z,12.22
2019-05-22T03:28:35.289Z,12.19
2019-05-22T03:29:35.277Z,12.18
2019-05-22T03:30:35.293Z,12.25
2019-05-22T03:31:35.263Z,12.21
2019-05-22T03:32:35.263Z,12.33
2019-05-22T03:33:35.259Z,12.26
2019-05-22T03:34:35.224Z,12.29
2019-05-22T03:35:35.224Z,12.33
2019-05-22T03:36:35.207Z,12.19
2019-05-22T03:37:35.192Z,12.22
2019-05-22T03:38:35.183Z,12.26
2019-05-22T03:39:35.172Z,12.33
2019-05-22T03:40:35.173Z,12.25
2019-05-22T03:41:35.200Z,12.25
2019-05-22T03:42:35.155Z,12.31
2019-05-22T03:43:35.134Z,12.30
2019-05-22T03:44:35.118Z,12.30
2019-05-22T03:45:35.123Z,12.29
2019-05-22T03:46:35.105Z,12.23
2019-05-22T03:47:35.088Z,12.18
2019-05-22T03:48:35.081Z,12.21
2019-05-22T03:49:35.074Z,12.29
2019-05-22T03:50:35.066Z,12.33
2019-05-22T03:51:35.045Z,12.29
2019-05-22T03:52:35.037Z,12.29
2019-05-22T03:53:35.023Z,12.33
2019-05-22T03:54:35.026Z,12.23
2019-05-22T03:55:35.049Z,12.30
2019-05-22T03:56:34.992Z,12.31
2019-05-22T03:57:45.734Z,12.31
2019-05-22T03:58:34.977Z,12.33
2019-05-22T03:59:34.962Z,12.33
2019-05-22T04:00:34.950Z,12.29
2019-05-22T04:01:34.942Z,12.33
2019-05-22T04:02:34.936Z,12.33
2019-05-22T04:03:34.921Z,12.30
2019-05-22T04:04:34.925Z,12.34
2019-05-22T04:05:34.897Z,12.29
2019-05-22T04:06:34.888Z,12.33
2019-05-22T04:07:34.883Z,12.37
2019-05-22T04:08:34.864Z,12.33
2019-05-22T04:09:34.869Z,12.38
2019-05-22T04:10:34.846Z,12.38
2019-05-22T04:11:34.858Z,12.37
2019-05-22T04:12:34.841Z,12.36
2019-05-22T04:13:34.813Z,12.37
2019-05-22T04:14:34.820Z,12.41
2019-05-22T04:15:34.792Z,12.37
2019-05-22T04:16:34.783Z,12.37
2019-05-22T04:17:34.770Z,12.44
2019-05-22T04:18:34.761Z,12.36
2019-05-22T04:19:48.670Z,12.37
2019-05-22T04:20:35.742Z,12.40
2019-05-22T04:21:34.736Z,12.44
2019-05-22T04:22:34.725Z,12.41
2019-05-22T04:23:34.708Z,12.49
2019-05-22T04:24:34.696Z,12.38
2019-05-22T04:25:34.689Z,12.33
2019-05-22T04:26:34.683Z,12.34
2019-05-22T04:27:34.665Z,12.40
2019-05-22T04:28:34.656Z,12.43
2019-05-22T04:29:34.647Z,12.40
2019-05-22T04:30:34.649Z,12.40
2019-05-22T04:31:34.645Z,12.46
2019-05-22T04:32:34.610Z,12.40
2019-05-22T04:33:34.601Z,12.48
2019-05-22T04:34:34.589Z,12.46
2019-05-22T04:35:34.579Z,12.54
2019-05-22T04:36:34.583Z,12.55
2019-05-22T04:37:34.559Z,12.41
2019-05-22T04:38:34.551Z,12.49
2019-05-22T04:39:34.537Z,12.43
2019-05-22T04:40:34.528Z,12.48
2019-05-22T04:41:34.527Z,12.44
2019-05-22T04:42:34.505Z,12.46
2019-05-22T04:43:34.498Z,12.52
2019-05-22T04:44:34.509Z,12.46
2019-05-22T04:45:34.475Z,12.54
2019-05-22T04:46:34.492Z,12.51
2019-05-22T04:47:34.453Z,12.48
2019-05-22T04:48:34.442Z,12.46
2019-05-22T04:49:34.434Z,12.51
2019-05-22T04:50:34.423Z,12.52
2019-05-22T04:51:34.411Z,12.56
2019-05-22T04:52:34.406Z,12.52
2019-05-22T04:53:34.390Z,12.54
2019-05-22T04:54:34.382Z,12.48
2019-05-22T04:55:34.372Z,12.40
2019-05-22T04:56:34.358Z,12.55
2019-05-22T04:57:34.353Z,12.51
2019-05-22T04:58:34.343Z,12.51
2019-05-22T04:59:34.324Z,12.56
2019-05-22T05:00:34.333Z,12.58
2019-05-22T05:01:34.309Z,12.51
2019-05-22T05:02:34.302Z,12.46
2019-05-22T05:03:34.306Z,12.46
2019-05-22T05:04:34.272Z,12.51
2019-05-22T05:05:34.271Z,12.43
2019-05-22T05:06:34.250Z,12.52
2019-05-22T05:07:34.250Z,12.44
2019-05-22T05:08:34.228Z,12.52
2019-05-22T05:09:34.217Z,12.48
2019-05-22T05:10:34.207Z,12.46
2019-05-22T05:11:34.213Z,12.51
2019-05-22T05:12:34.202Z,12.51
2019-05-22T05:13:34.177Z,12.49
2019-05-22T05:14:34.169Z,12.44
2019-05-22T05:15:37.127Z,12.49
2019-05-22T05:16:34.146Z,12.52
2019-05-22T05:17:34.147Z,12.48
2019-05-22T05:18:34.130Z,12.51
2019-05-22T05:19:34.125Z,12.44
2019-05-22T05:20:34.100Z,12.49
2019-05-22T05:21:34.090Z,12.52
2019-05-22T05:22:34.102Z,12.56
2019-05-22T05:23:34.068Z,12.49
2019-05-22T05:24:34.066Z,12.51
2019-05-22T05:25:34.048Z,12.61
2019-05-22T05:26:34.040Z,12.61
2019-05-22T05:27:34.026Z,12.54
2019-05-22T05:28:34.028Z,12.58
2019-05-22T05:29:34.005Z,12.52
2019-05-22T05:30:34.002Z,12.48
2019-05-22T05:31:33.983Z,12.62
2019-05-22T05:32:33.979Z,12.61
2019-05-22T05:33:33.974Z,12.59
2019-05-22T05:34:33.963Z,12.61
2019-05-22T05:35:33.989Z,12.55
2019-05-22T05:36:33.931Z,12.61
2019-05-22T05:37:33.922Z,12.58
2019-05-22T05:38:33.922Z,12.61
2019-05-22T05:39:33.907Z,12.58
2019-05-22T05:40:33.974Z,12.59
2019-05-22T05:41:33.884Z,12.67
2019-05-22T05:42:33.875Z,12.66
2019-05-22T05:43:33.869Z,12.59
2019-05-22T05:44:33.854Z,12.71
2019-05-22T05:45:33.837Z,12.71
2019-05-22T05:46:33.832Z,12.71
2019-05-22T05:47:33.819Z,12.59
2019-05-22T05:48:33.814Z,12.71
2019-05-22T05:49:33.796Z,12.59
2019-05-22T05:50:39.571Z,12.59
2019-05-22T05:51:34.784Z,12.59
2019-05-22T05:52:33.761Z,12.66
2019-05-22T05:53:33.796Z,12.66
2019-05-22T05:54:33.743Z,12.69
2019-05-22T05:55:33.729Z,12.63
2019-05-22T05:56:33.725Z,12.69
2019-05-22T05:57:33.708Z,12.66
2019-05-22T05:58:33.710Z,12.63
2019-05-22T05:59:33.689Z,12.77
2019-05-22T06:00:33.675Z,12.79
2019-05-22T06:01:33.665Z,12.84
2019-05-22T06:02:33.654Z,12.79
2019-05-22T06:03:33.658Z,12.77
2019-05-22T06:04:35.335Z,12.87
2019-05-22T06:05:33.624Z,12.87
2019-05-22T06:06:33.611Z,12.87
2019-05-22T06:07:33.610Z,12.92
2019-05-22T06:08:33.624Z,12.96
2019-05-22T06:09:33.585Z,12.98
2019-05-22T06:10:33.570Z,12.99
2019-05-22T06:11:33.556Z,12.96
2019-05-22T06:12:33.546Z,12.94
2019-05-22T06:13:33.536Z,12.94
2019-05-22T06:14:33.538Z,13.04
2019-05-22T06:15:46.423Z,12.96
2019-05-22T06:16:34.508Z,12.98
2019-05-22T06:17:33.494Z,13.03
2019-05-22T06:18:33.483Z,13.07
2019-05-22T06:19:33.483Z,13.09
2019-05-22T06:20:33.462Z,13.14
2019-05-22T06:21:33.452Z,13.07
2019-05-22T06:22:33.438Z,13.07
2019-05-22T06:23:33.429Z,13.13
2019-05-22T06:24:33.432Z,13.10
2019-05-22T06:25:33.408Z,13.04
2019-05-22T06:26:33.404Z,13.09
2019-05-22T06:27:33.388Z,13.04
2019-05-22T06:28:33.378Z,13.06
2019-05-22T06:29:33.381Z,13.06
2019-05-22T06:30:33.354Z,13.12
2019-05-22T06:31:33.367Z,13.04
2019-05-22T06:32:33.335Z,13.07
2019-05-22T06:33:33.324Z,13.09
2019-05-22T06:34:33.344Z,13.04
2019-05-22T06:35:33.391Z,13.06
2019-05-22T06:36:33.292Z,13.07
2019-05-22T06:37:33.316Z,13.16
2019-05-22T06:38:33.279Z,13.21
2019-05-22T06:39:33.272Z,13.24
2019-05-22T06:40:33.254Z,13.16
2019-05-22T06:41:33.268Z,13.29
2019-05-22T06:42:33.226Z,13.29
2019-05-22T06:43:33.214Z,13.27
2019-05-22T06:44:33.226Z,13.39
2019-05-22T06:45:35.598Z,13.35
2019-05-22T06:46:33.184Z,13.28
2019-05-22T06:47:33.173Z,13.38
2019-05-22T06:48:33.165Z,13.43
2019-05-22T06:49:33.199Z,13.39
2019-05-22T06:50:33.145Z,13.41
2019-05-22T06:51:33.131Z,13.41
2019-05-22T06:52:33.120Z,13.38
2019-05-22T06:53:33.112Z,13.39
2019-05-22T06:54:33.099Z,13.44
2019-05-22T06:55:33.096Z,13.41
2019-05-22T06:56:33.078Z,13.39
2019-05-22T06:57:33.075Z,13.48
2019-05-22T06:58:33.061Z,13.48
2019-05-22T06:59:33.047Z,13.48
2019-05-22T07:00:33.044Z,13.57
2019-05-22T07:01:33.023Z,13.51
2019-05-22T07:02:33.018Z,13.61
2019-05-22T07:03:33.029Z,13.63
2019-05-22T07:04:32.996Z,13.71
2019-05-22T07:05:32.985Z,13.69
2019-05-22T07:06:32.983Z,13.65
2019-05-22T07:07:32.974Z,13.69
2019-05-22T07:08:32.950Z,13.72
2019-05-22T07:09:32.945Z,13.65
2019-05-22T07:10:32.957Z,13.63
2019-05-22T07:11:32.920Z,13.71
2019-05-22T07:12:32.914Z,13.63
2019-05-22T07:13:32.898Z,13.59
2019-05-22T07:14:32.888Z,13.63
2019-05-22T07:15:32.879Z,13.76
2019-05-22T07:16:32.864Z,13.68
2019-05-22T07:17:32.855Z,13.76
2019-05-22T07:18:32.851Z,13.68
2019-05-22T07:19:32.863Z,13.76
2019-05-22T07:20:32.844Z,13.76
2019-05-22T07:21:34.175Z,13.83
2019-05-22T07:22:32.801Z,13.86
2019-05-22T07:23:32.791Z,13.84
2019-05-22T07:24:32.785Z,14.01
2019-05-22T07:25:32.776Z,14.02
2019-05-22T07:26:32.761Z,14.02
2019-05-22T07:27:32.752Z,13.94
2019-05-22T07:28:32.738Z,13.99
2019-05-22T07:29:32.732Z,13.96
2019-05-22T07:30:32.720Z,13.93
2019-05-22T07:31:32.707Z,13.98
2019-05-22T07:32:32.701Z,13.90
2019-05-22T07:33:32.689Z,13.87
2019-05-22T07:34:32.678Z,13.80
2019-05-22T07:35:46.015Z,13.81
2019-05-22T07:36:33.652Z,13.84
2019-05-22T07:37:32.642Z,13.73
2019-05-22T07:38:32.631Z,13.72
2019-05-22T07:39:32.623Z,13.79
2019-05-22T07:40:32.615Z,13.79
2019-05-22T07:41:32.599Z,13.69
2019-05-22T07:42:32.605Z,13.66
2019-05-22T07:43:32.577Z,13.79
2019-05-22T07:44:32.568Z,13.79
2019-05-22T07:45:32.567Z,13.75
2019-05-22T07:46:32.568Z,13.80
2019-05-22T07:47:32.538Z,13.87
2019-05-22T07:48:32.530Z,13.98
2019-05-22T07:49:32.515Z,13.96
2019-05-22T07:50:32.515Z,14.08
2019-05-22T07:51:32.496Z,14.08
2019-05-22T07:52:32.483Z,14.12
2019-05-22T07:53:32.472Z,14.13
2019-05-22T07:54:32.465Z,14.13
2019-05-22T07:55:32.468Z,14.19
2019-05-22T07:56:32.445Z,14.20
2019-05-22T07:57:32.440Z,14.26
2019-05-22T07:58:32.419Z,14.34
2019-05-22T07:59:32.410Z,14.39
2019-05-22T08:00:32.434Z,14.39
2019-05-22T08:01:32.386Z,14.42
2019-05-22T08:02:32.375Z,14.45
2019-05-22T08:03:32.365Z,14.45
2019-05-22T08:04:32.364Z,14.48
2019-05-22T08:05:32.387Z,14.64
2019-05-22T08:06:32.339Z,14.66
2019-05-22T08:07:32.326Z,14.66
2019-05-22T08:08:32.312Z,14.72
2019-05-22T08:09:32.303Z,14.85
2019-05-22T08:10:32.298Z,14.98
2019-05-22T08:11:32.292Z,15.01
2019-05-22T08:12:32.276Z,15.09
2019-05-22T08:13:32.287Z,15.13
2019-05-22T08:14:32.254Z,15.20
2019-05-22T08:15:32.238Z,15.19
2019-05-22T08:16:32.246Z,15.23
2019-05-22T08:17:32.222Z,15.28
2019-05-22T08:18:32.211Z,15.37
2019-05-22T08:19:32.197Z,15.41
2019-05-22T08:20:32.187Z,15.48
2019-05-22T08:21:32.219Z,15.48
2019-05-22T08:22:32.163Z,15.51
2019-05-22T08:23:32.159Z,15.55
2019-05-22T08:24:32.144Z,15.59
2019-05-22T08:25:32.138Z,15.68
2019-05-22T08:26:32.140Z,15.67
2019-05-22T08:27:32.111Z,15.59
2019-05-22T08:28:32.099Z,15.67
2019-05-22T08:29:32.090Z,15.62
2019-05-22T08:30:32.081Z,15.59
2019-05-22T08:31:32.080Z,15.43
2019-05-22T08:32:32.061Z,15.46
2019-05-22T08:33:32.051Z,15.40
2019-05-22T08:34:32.039Z,15.28
2019-05-22T08:35:32.026Z,15.20
2019-05-22T08:36:32.029Z,15.19
2019-05-22T08:37:32.006Z,15.23
2019-05-22T08:38:32.006Z,15.25
2019-05-22T08:39:31.993Z,15.23
2019-05-22T08:40:31.972Z,15.25
2019-05-22T08:41:31.974Z,15.34
2019-05-22T08:42:35.324Z,15.25
2019-05-22T08:43:31.942Z,15.27
2019-05-22T08:44:31.929Z,15.23
2019-05-22T08:45:31.920Z,15.22
2019-05-22T08:46:31.922Z,15.28
2019-05-22T08:47:31.898Z,15.30
2019-05-22T08:48:31.891Z,15.35
2019-05-22T08:49:31.880Z,15.41
2019-05-22T08:50:31.867Z,15.34
2019-05-22T08:51:31.867Z,15.34
2019-05-22T08:52:31.846Z,15.38
2019-05-22T08:53:46.116Z,15.35
2019-05-22T08:54:32.830Z,15.44
2019-05-22T08:55:31.821Z,15.40
2019-05-22T08:56:31.818Z,15.44
2019-05-22T08:57:31.792Z,15.51
2019-05-22T08:58:31.782Z,15.55
2019-05-22T08:59:31.771Z,15.64
2019-05-22T09:00:31.767Z,15.67
2019-05-22T09:01:31.762Z,15.78
2019-05-22T09:02:31.747Z,15.74
2019-05-22T09:03:31.834Z,15.76
2019-05-22T09:04:31.750Z,15.84
2019-05-22T09:05:31.895Z,15.74
2019-05-22T09:06:31.714Z,15.68
2019-05-22T09:07:31.708Z,15.60
2019-05-22T09:08:31.683Z,15.48
2019-05-22T09:09:31.671Z,15.48
2019-05-22T09:10:31.655Z,15.44
2019-05-22T09:11:31.661Z,15.34
2019-05-22T09:12:31.642Z,15.41
2019-05-22T09:13:31.625Z,15.20
2019-05-22T09:14:31.620Z,15.27
2019-05-22T09:15:31.609Z,15.23
2019-05-22T09:16:31.604Z,15.31
2019-05-22T09:17:31.582Z,15.27
2019-05-22T09:18:31.623Z,15.16
2019-05-22T09:19:31.562Z,15.19
2019-05-22T09:20:46.408Z,15.19
2019-05-22T09:21:32.555Z,15.22
2019-05-22T09:22:40.185Z,15.19
2019-05-22T09:23:32.519Z,15.20
2019-05-22T09:24:31.519Z,15.38
2019-05-22T09:25:31.501Z,15.38
2019-05-22T09:26:31.498Z,15.44
2019-05-22T09:27:31.475Z,15.49
2019-05-22T09:28:31.464Z,15.49
2019-05-22T09:29:31.454Z,15.46
2019-05-22T09:30:31.447Z,15.41
2019-05-22T09:31:31.451Z,15.51
2019-05-22T09:32:31.426Z,15.51
2019-05-22T09:33:31.483Z,15.43
2019-05-22T09:34:31.400Z,15.40
2019-05-22T09:35:31.393Z,15.43
2019-05-22T09:36:31.420Z,15.52
2019-05-22T09:37:31.373Z,15.53
2019-05-22T09:38:31.362Z,15.59
2019-05-22T09:39:31.350Z,15.67
2019-05-22T09:40:31.338Z,15.70
2019-05-22T09:41:31.353Z,15.71
2019-05-22T09:42:31.317Z,15.64
2019-05-22T09:43:31.306Z,15.78
2019-05-22T09:44:31.295Z,15.85
2019-05-22T09:45:31.585Z,15.81
2019-05-22T09:46:31.274Z,15.78
2019-05-22T09:47:31.279Z,15.86
2019-05-22T09:48:31.253Z,15.99
2019-05-22T09:49:31.243Z,15.95
2019-05-22T09:50:31.231Z,16.07
2019-05-22T09:51:31.221Z,16.30
2019-05-22T09:52:31.221Z,16.51
2019-05-22T09:53:31.199Z,16.54
2019-05-22T09:54:31.187Z,16.50
2019-05-22T09:55:31.177Z,16.67
2019-05-22T09:56:31.168Z,16.70
2019-05-22T09:57:31.179Z,16.60
2019-05-22T09:58:31.149Z,16.59
2019-05-22T09:59:31.146Z,16.48
2019-05-22T10:00:31.161Z,16.42
2019-05-22T10:01:31.178Z,16.34
2019-05-22T10:02:31.117Z,16.29
2019-05-22T10:03:31.092Z,16.32
2019-05-22T10:04:31.085Z,16.17
2019-05-22T10:05:31.089Z,16.10
2019-05-22T10:06:31.058Z,16.03
2019-05-22T10:07:31.062Z,15.99
2019-05-22T10:08:31.040Z,15.96
2019-05-22T10:09:31.028Z,15.98
2019-05-22T10:10:31.016Z,15.92
2019-05-22T10:11:31.010Z,15.95
2019-05-22T10:12:31.006Z,16.03
2019-05-22T10:13:30.986Z,16.18
2019-05-22T10:14:30.976Z,16.11
2019-05-22T10:15:31.216Z,16.17
2019-05-22T10:16:30.952Z,16.33
2019-05-22T10:17:31.043Z,16.27
2019-05-22T10:18:30.936Z,16.34
2019-05-22T10:19:30.937Z,16.40
2019-05-22T10:20:30.911Z,16.47
2019-05-22T10:21:30.900Z,16.54
2019-05-22T10:22:30.913Z,16.57
2019-05-22T10:23:30.878Z,16.55
2019-05-22T10:24:30.870Z,16.59
2019-05-22T10:25:30.859Z,16.80
2019-05-22T10:26:30.852Z,16.81
2019-05-22T10:27:30.849Z,16.81
2019-05-22T10:28:30.825Z,16.85
2019-05-22T10:29:32.347Z,16.73
2019-05-22T10:30:30.802Z,16.57
2019-05-22T10:31:30.792Z,16.62
2019-05-22T10:32:32.235Z,16.75
2019-05-22T10:33:30.772Z,16.72
2019-05-22T10:34:30.761Z,16.88
2019-05-22T10:35:30.751Z,16.78
2019-05-22T10:36:30.739Z,16.95
2019-05-22T10:37:30.744Z,16.98
2019-05-22T10:38:30.730Z,17.12
2019-05-22T10:39:30.708Z,17.30
2019-05-22T10:40:30.704Z,17.33
2019-05-22T10:41:30.687Z,17.43
2019-05-22T10:42:30.688Z,17.40
2019-05-22T10:43:30.666Z,17.51
2019-05-22T10:44:30.660Z,17.43
2019-05-22T10:45:30.646Z,17.43
2019-05-22T10:46:30.632Z,17.28
2019-05-22T10:47:30.637Z,17.20
2019-05-22T10:48:30.611Z,17.10
2019-05-22T10:49:30.644Z,17.07
2019-05-22T10:50:30.594Z,17.07
2019-05-22T10:51:30.589Z,17.06
2019-05-22T10:52:30.601Z,17.05
2019-05-22T10:53:34.217Z,17.03
2019-05-22T10:54:30.557Z,17.06
2019-05-22T10:55:30.539Z,17.14
2019-05-22T10:56:30.527Z,17.24
2019-05-22T10:57:30.517Z,17.21
2019-05-22T10:58:30.517Z,17.22
2019-05-22T10:59:30.500Z,17.24
2019-05-22T11:00:30.484Z,17.25
2019-05-22T11:01:30.491Z,17.27
2019-05-22T11:02:30.465Z,17.38
2019-05-22T11:03:30.464Z,17.33
2019-05-22T11:04:30.446Z,17.33
2019-05-22T11:05:30.434Z,17.24
2019-05-22T11:06:30.423Z,17.21
2019-05-22T11:07:30.410Z,17.25
2019-05-22T11:08:34.177Z,17.43
2019-05-22T11:09:30.408Z,17.43
2019-05-22T11:10:30.427Z,17.58
2019-05-22T11:11:30.373Z,17.68
2019-05-22T11:12:30.358Z,17.65
2019-05-22T11:13:34.024Z,17.74
2019-05-22T11:14:30.343Z,17.98
2019-05-22T11:15:30.325Z,18.19
2019-05-22T11:16:30.313Z,18.29
2019-05-22T11:17:30.308Z,18.34
2019-05-22T11:18:30.305Z,18.46
2019-05-22T11:19:30.282Z,18.41
2019-05-22T11:20:30.271Z,18.44
2019-05-22T11:21:30.260Z,18.53
2019-05-22T11:22:30.249Z,18.62
2019-05-22T11:23:30.253Z,18.66
2019-05-22T11:24:30.228Z,18.83
2019-05-22T11:25:30.218Z,18.83
2019-05-22T11:26:30.207Z,18.86
2019-05-22T11:27:30.197Z,19.02
2019-05-22T11:28:30.199Z,19.27
2019-05-22T11:29:30.179Z,19.35
2019-05-22T11:30:30.170Z,19.76
2019-05-22T11:31:30.154Z,19.80
2019-05-22T11:32:30.146Z,19.85
2019-05-22T11:33:34.071Z,19.79
2019-05-22T11:34:30.131Z,19.83
2019-05-22T11:35:30.114Z,19.78
2019-05-22T11:36:30.159Z,19.78
2019-05-22T11:37:30.093Z,19.60
2019-05-22T11:38:30.093Z,19.64
2019-05-22T11:39:39.327Z,19.61
2019-05-22T11:40:31.060Z,19.82
2019-05-22T11:41:30.051Z,19.86
2019-05-22T11:42:30.046Z,20.01
2019-05-22T11:43:30.043Z,20.16
2019-05-22T11:44:30.017Z,20.25
2019-05-22T11:45:30.012Z,20.25
2019-05-22T11:46:29.997Z,20.22
2019-05-22T11:47:29.987Z,20.40
2019-05-22T11:48:29.989Z,20.46
2019-05-22T11:49:29.963Z,20.66
2019-05-22T11:50:29.952Z,20.66
2019-05-22T11:51:29.940Z,20.71
2019-05-22T11:52:29.930Z,20.85
2019-05-22T11:53:29.938Z,20.64
2019-05-22T11:54:29.908Z,20.50
2019-05-22T11:55:44.278Z,20.37
2019-05-22T11:56:30.885Z,20.20
2019-05-22T11:57:29.877Z,20.19
2019-05-22T11:58:29.882Z,20.35
2019-05-22T11:59:29.861Z,20.33
2019-05-22T12:00:29.844Z,20.33
2019-05-22T12:01:29.833Z,20.30
2019-05-22T12:02:29.822Z,20.37
2019-05-22T12:03:29.847Z,20.46
2019-05-22T12:04:46.485Z,20.37
2019-05-22T12:05:30.791Z,20.40
2019-05-22T12:06:29.795Z,20.63
2019-05-22T12:07:29.806Z,20.71
2019-05-22T12:08:29.757Z,20.54
2019-05-22T12:09:29.750Z,20.37
2019-05-22T12:10:29.738Z,20.22
2019-05-22T12:11:29.724Z,20.13
2019-05-22T12:12:29.748Z,20.15
2019-05-22T12:13:29.707Z,20.13
2019-05-22T12:14:29.696Z,20.22
2019-05-22T12:15:29.689Z,20.41
2019-05-22T12:16:29.704Z,20.35
2019-05-22T12:17:38.092Z,20.35
2019-05-22T12:18:30.647Z,20.27
2019-05-22T12:19:29.641Z,20.60
2019-05-22T12:20:29.627Z,21.09
2019-05-22T12:21:29.615Z,21.26
2019-05-22T12:22:29.607Z,21.26
2019-05-22T12:23:29.598Z,21.53
2019-05-22T12:24:36.652Z,21.40
2019-05-22T12:25:30.575Z,21.33
2019-05-22T12:26:29.572Z,21.22
2019-05-22T12:27:29.554Z,21.00
2019-05-22T12:28:29.547Z,20.75
2019-05-22T12:29:29.548Z,20.51
2019-05-22T12:30:29.522Z,20.31
2019-05-22T12:31:29.511Z,20.16
2019-05-22T12:32:29.506Z,20.04
2019-05-22T12:33:29.494Z,19.98
2019-05-22T12:34:29.501Z,20.13
2019-05-22T12:35:29.468Z,20.63
2019-05-22T12:36:29.459Z,21.61
2019-05-22T12:37:29.447Z,21.96
2019-05-22T12:38:29.460Z,22.01
2019-05-22T12:39:29.440Z,21.98
2019-05-22T12:40:29.428Z,22.26
2019-05-22T12:41:29.405Z,22.48
2019-05-22T12:42:29.395Z,22.72
2019-05-22T12:43:29.389Z,24.16
2019-05-22T12:44:29.419Z,26.31
2019-05-22T12:45:29.370Z,28.09
2019-05-22T12:46:29.352Z,28.54
2019-05-22T12:47:29.347Z,28.48
2019-05-22T12:48:29.332Z,29.89
2019-05-22T12:49:29.336Z,28.54
2019-05-22T12:50:29.312Z,27.21
2019-05-22T12:51:29.301Z,26.65
2019-05-22T12:52:29.300Z,25.98
2019-05-22T12:53:29.281Z,25.49
2019-05-22T12:54:45.325Z,25.89
2019-05-22T12:55:30.256Z,29.29
2019-05-22T12:56:29.251Z,30.76
2019-05-22T12:57:29.239Z,29.08
2019-05-22T12:58:29.229Z,27.30
2019-05-22T12:59:29.246Z,26.28
2019-05-22T13:00:29.209Z,25.31
2019-05-22T13:01:29.199Z,24.63
2019-05-22T13:02:29.188Z,24.29
2019-05-22T13:03:29.180Z,23.77
2019-05-22T13:04:29.165Z,23.67
2019-05-22T13:05:29.167Z,24.56
2019-05-22T13:06:29.145Z,26.50
2019-05-22T13:07:29.135Z,25.74
2019-05-22T13:08:29.124Z,25.69
2019-05-22T13:09:29.115Z,25.07
2019-05-22T13:10:29.117Z,24.74
2019-05-22T13:11:29.093Z,25.59
2019-05-22T13:12:29.083Z,25.97
2019-05-22T13:13:29.074Z,26.98
2019-05-22T13:14:29.062Z,26.90
2019-05-22T13:15:29.070Z,26.19
2019-05-22T13:16:29.041Z,25.63
2019-05-22T13:17:29.055Z,25.78
2019-05-22T13:18:29.026Z,27.02
2019-05-22T13:19:29.013Z,29.21
2019-05-22T13:20:41.767Z,29.49
2019-05-22T13:21:29.991Z,31.72
2019-05-22T13:22:28.980Z,31.22
2019-05-22T13:23:28.972Z,31.47
2019-05-22T13:24:28.959Z,32.65
2019-05-22T13:25:28.964Z,30.29
2019-05-22T13:26:28.938Z,28.69
2019-05-22T13:27:28.930Z,27.39
2019-05-22T13:28:28.918Z,26.56
2019-05-22T13:29:28.908Z,26.19
2019-05-22T13:30:29.092Z,25.98
2019-05-22T13:31:28.895Z,26.04
2019-05-22T13:32:28.882Z,25.71
2019-05-22T13:33:28.877Z,25.42
2019-05-22T13:34:28.862Z,25.29
2019-05-22T13:35:28.861Z,25.07
2019-05-22T13:36:28.838Z,25.02
2019-05-22T13:37:28.919Z,25.34
2019-05-22T13:38:28.817Z,28.45
2019-05-22T13:39:28.808Z,30.48
2019-05-22T13:40:28.829Z,32.07
2019-05-22T13:41:28.787Z,33.43
2019-05-22T13:42:28.776Z,34.23
2019-05-22T13:43:28.771Z,34.50
2019-05-22T13:44:28.757Z,34.88
2019-05-22T13:45:30.174Z,35.55
2019-05-22T13:46:28.736Z,36.38
2019-05-22T13:47:28.733Z,36.87
2019-05-22T13:48:28.716Z,37.47
2019-05-22T13:49:28.709Z,37.99
2019-05-22T13:50:29.184Z,38.22
2019-05-22T13:51:28.688Z,38.67
2019-05-22T13:52:28.680Z,37.82
2019-05-22T13:53:28.669Z,35.64
2019-05-22T13:54:28.661Z,33.70
2019-05-22T13:55:28.687Z,33.11
2019-05-22T13:56:28.642Z,32.95
2019-05-22T13:57:28.632Z,34.42
2019-05-22T13:58:28.717Z,35.62
2019-05-22T13:59:28.611Z,36.74
2019-05-22T14:00:28.615Z,37.13
2019-05-22T14:01:28.593Z,37.69
2019-05-22T14:02:28.585Z,37.88
2019-05-22T14:03:28.574Z,37.97
2019-05-22T14:04:28.576Z,37.15
2019-05-22T14:05:28.569Z,35.00
2019-05-22T14:06:28.547Z,34.31
2019-05-22T14:07:28.537Z,33.72
2019-05-22T14:08:28.530Z,35.06
2019-05-22T14:09:28.521Z,36.44
2019-05-22T14:10:28.528Z,37.47
2019-05-22T14:11:28.500Z,37.60
2019-05-22T14:12:28.494Z,37.56
2019-05-22T14:13:28.484Z,36.64
2019-05-22T14:14:28.474Z,34.55
2019-05-22T14:15:47.353Z,33.26
2019-05-22T14:16:29.738Z,31.95
2019-05-22T14:17:28.447Z,31.04